Terminal Aerodrome Forecast
Issued by NWS Wilmington, OH

Current Version | Previous Version | Graphics & Text | Print | Product List | Glossary On
Versions: 1 2 3 4 5 6 7 8 9 10 11 12 13 14 15 16 17 18 19 20
000
FTUS41 KILN 241134
TAFILN
TAF
KILN 241134Z 2412/2512 25004KT 5SM BR FEW004 SCT050
     FM241300 29004KT P6SM SCT004
     FM241800 33010KT P6SM BKN035
     FM250200 03005KT P6SM FEW035=

USA.gov is the U.S. government's official web portal to all federal, state and local government web resources and services.